createdAt,value
2022-11-10T00:02:43.470Z,4.93
2022-11-10T00:05:36.581Z,4.83
2022-11-10T00:08:27.390Z,4.86
2022-11-10T00:11:19.154Z,4.83
2022-11-10T00:14:28.820Z,4.85
2022-11-10T00:17:19.434Z,4.76
2022-11-10T00:20:11.470Z,4.72
2022-11-10T00:23:02.594Z,4.73
2022-11-10T00:25:53.590Z,4.69
2022-11-10T00:28:45.513Z,4.67
2022-11-10T00:31:37.546Z,4.67
2022-11-10T00:34:28.526Z,4.65
2022-11-10T00:37:19.419Z,4.63
2022-11-10T00:40:11.045Z,4.65
2022-11-10T00:43:02.196Z,4.69
2022-11-10T00:45:53.931Z,4.63
2022-11-10T00:48:44.693Z,4.56
2022-11-10T00:51:35.669Z,4.56
2022-11-10T00:54:26.810Z,4.53
2022-11-10T00:57:18.001Z,4.52
2022-11-10T01:00:10.080Z,4.51
2022-11-10T01:03:01.896Z,4.46
2022-11-10T01:05:52.830Z,4.38
2022-11-10T01:08:44.371Z,4.36
2022-11-10T01:11:35.511Z,4.32
2022-11-10T01:14:26.618Z,4.33
2022-11-10T01:17:17.686Z,4.34
2022-11-10T01:20:10.748Z,4.24
2022-11-10T01:23:01.864Z,4.15
2022-11-10T01:25:56.223Z,4.14
2022-11-10T01:28:47.258Z,4.10
2022-11-10T01:31:38.162Z,4.12
2022-11-10T01:34:29.178Z,4.08
2022-11-10T01:37:20.832Z,4.03
2022-11-10T01:40:12.329Z,4.10
2022-11-10T01:43:03.666Z,4.10
2022-11-10T01:45:55.641Z,4.09
2022-11-10T01:48:49.433Z,4.08
2022-11-10T01:51:48.409Z,4.09
2022-11-10T01:54:46.130Z,4.06
2022-11-10T01:57:38.116Z,3.92
2022-11-10T02:00:28.964Z,3.99
2022-11-10T02:03:25.555Z,4.02
2022-11-10T02:06:19.839Z,3.89
2022-11-10T02:09:10.986Z,3.86
2022-11-10T02:12:03.561Z,3.85
2022-11-10T02:14:54.538Z,3.83
2022-11-10T02:17:47.025Z,3.80
2022-11-10T02:20:38.024Z,3.82
2022-11-10T02:23:47.436Z,3.85
2022-11-10T02:26:43.333Z,3.83
2022-11-10T02:29:33.941Z,3.76
2022-11-10T02:32:24.879Z,3.71
2022-11-10T02:35:15.893Z,3.68
2022-11-10T02:38:06.878Z,3.70
2022-11-10T02:40:58.624Z,3.69
2022-11-10T02:43:50.563Z,3.67
2022-11-10T02:46:41.298Z,3.62
2022-11-10T02:49:32.489Z,3.63
2022-11-10T02:52:23.366Z,3.62
2022-11-10T02:55:14.639Z,3.61
2022-11-10T02:58:06.192Z,3.58
2022-11-10T03:00:56.948Z,3.61
2022-11-10T03:03:47.774Z,3.55
2022-11-10T03:06:38.827Z,3.42
2022-11-10T03:09:29.650Z,3.46
2022-11-10T03:12:20.692Z,3.45
2022-11-10T03:15:12.321Z,3.40
2022-11-10T03:18:04.095Z,3.31
2022-11-10T03:20:54.997Z,3.34
2022-11-10T03:23:45.903Z,3.34
2022-11-10T03:26:36.886Z,3.30
2022-11-10T03:29:27.731Z,3.28
2022-11-10T03:32:19.250Z,3.24
2022-11-10T03:35:10.822Z,3.21
2022-11-10T03:38:01.645Z,3.21
2022-11-10T03:44:04.120Z,3.14
2022-11-10T03:46:54.828Z,3.13
2022-11-10T03:49:46.435Z,3.12
2022-11-10T03:52:38.620Z,3.12
2022-11-10T03:55:29.562Z,3.18
2022-11-10T03:58:20.433Z,3.15
2022-11-10T04:01:11.538Z,3.19
2022-11-10T04:04:02.576Z,3.17
2022-11-10T04:07:12.543Z,3.14
2022-11-10T04:10:04.049Z,3.14
2022-11-10T04:13:13.270Z,3.03
2022-11-10T04:16:03.913Z,3.04
2022-11-10T04:18:54.757Z,3.00
2022-11-10T04:21:46.187Z,2.92
2022-11-10T04:24:37.861Z,2.92
2022-11-10T04:27:28.938Z,2.94
2022-11-10T04:30:19.957Z,2.92
2022-11-10T04:33:10.788Z,2.94
2022-11-10T04:36:02.028Z,2.92
2022-11-10T04:38:54.575Z,2.93
2022-11-10T04:41:47.119Z,2.90
2022-11-10T04:44:37.979Z,2.92
2022-11-10T04:47:29.085Z,2.93
2022-11-10T04:50:20.105Z,2.85
2022-11-10T04:53:11.293Z,2.88
2022-11-10T04:56:02.353Z,2.87
2022-11-10T04:58:54.800Z,2.85
2022-11-10T05:01:45.736Z,2.79
2022-11-10T05:04:36.670Z,2.80
2022-11-10T05:07:27.591Z,2.79
2022-11-10T05:10:18.801Z,2.73
2022-11-10T05:13:10.754Z,2.76
2022-11-10T05:16:02.992Z,2.77
2022-11-10T05:18:55.342Z,2.79
2022-11-10T05:21:46.181Z,2.85
2022-11-10T05:24:37.101Z,2.85
2022-11-10T05:27:29.242Z,2.90
2022-11-10T05:30:20.135Z,2.94
2022-11-10T05:33:11.753Z,2.90
2022-11-10T05:36:03.425Z,3.02
2022-11-10T05:38:54.206Z,3.02
2022-11-10T05:41:45.143Z,2.98
2022-11-10T05:44:36.101Z,3.08
2022-11-10T05:47:26.966Z,3.16
2022-11-10T05:50:20.264Z,3.22
2022-11-10T05:53:11.521Z,3.26
2022-11-10T05:56:02.280Z,3.25
2022-11-10T05:58:53.250Z,3.31
2022-11-10T06:01:44.259Z,3.34
2022-11-10T06:04:35.193Z,3.40
2022-11-10T06:07:26.986Z,3.40
2022-11-10T06:10:18.398Z,3.42
2022-11-10T06:13:10.305Z,3.44
2022-11-10T06:16:01.701Z,3.44
2022-11-10T06:18:52.357Z,3.41
2022-11-10T06:21:43.304Z,3.40
2022-11-10T06:24:34.746Z,3.40
2022-11-10T06:27:25.990Z,3.42
2022-11-10T06:30:17.129Z,3.42
2022-11-10T06:33:11.678Z,3.42
2022-11-10T06:36:02.422Z,3.45
2022-11-10T06:38:53.309Z,3.51
2022-11-10T06:41:44.938Z,3.48
2022-11-10T06:44:36.196Z,3.54
2022-11-10T06:47:27.204Z,3.59
2022-11-10T06:50:18.050Z,3.65
2022-11-10T06:53:09.822Z,3.74
2022-11-10T06:56:01.105Z,3.84
2022-11-10T06:58:52.765Z,3.98
2022-11-10T07:01:43.924Z,4.15
2022-11-10T07:04:34.774Z,4.30
2022-11-10T07:07:25.712Z,4.41
2022-11-10T07:10:16.829Z,4.57
2022-11-10T07:13:07.545Z,4.72
2022-11-10T07:15:59.198Z,4.86
2022-11-10T07:18:50.466Z,4.87
2022-11-10T07:21:41.833Z,5.02
2022-11-10T07:24:32.990Z,5.09
2022-11-10T07:27:23.960Z,5.12
2022-11-10T07:30:15.126Z,5.29
2022-11-10T07:33:09.355Z,5.41
2022-11-10T07:36:03.090Z,5.50
2022-11-10T07:38:53.750Z,5.65
2022-11-10T07:41:48.741Z,5.87
2022-11-10T07:44:42.149Z,5.94
2022-11-10T07:47:32.883Z,6.16
2022-11-10T07:50:24.394Z,6.18
2022-11-10T07:53:16.643Z,6.22
2022-11-10T07:56:07.630Z,6.18
2022-11-10T07:58:58.541Z,6.29
2022-11-10T08:01:49.477Z,6.40
2022-11-10T08:04:40.335Z,6.30
2022-11-10T08:07:32.046Z,6.40
2022-11-10T08:10:23.041Z,6.52
2022-11-10T08:13:14.307Z,6.57
2022-11-10T08:16:05.330Z,6.57
2022-11-10T08:18:56.130Z,6.70
2022-11-10T08:21:47.199Z,6.63
2022-11-10T08:24:39.030Z,6.83
2022-11-10T08:27:29.799Z,6.70
2022-11-10T08:30:20.746Z,6.93
2022-11-10T08:33:14.242Z,7.06
2022-11-10T08:36:05.493Z,7.10
2022-11-10T08:38:56.504Z,7.23
2022-11-10T08:41:48.047Z,7.31
2022-11-10T08:44:38.764Z,7.44
2022-11-10T08:47:29.724Z,7.40
2022-11-10T08:50:20.736Z,7.52
2022-11-10T08:53:13.099Z,7.69
2022-11-10T08:56:04.535Z,7.68
2022-11-10T08:58:56.054Z,7.75
2022-11-10T09:01:47.139Z,7.57
2022-11-10T09:04:37.983Z,7.82
2022-11-10T09:07:30.405Z,8.02
2022-11-10T09:10:21.633Z,8.14
2022-11-10T09:13:14.054Z,8.27
2022-11-10T09:16:06.320Z,8.30
2022-11-10T09:18:57.444Z,8.51
2022-11-10T09:21:48.229Z,8.34
2022-11-10T09:24:39.121Z,8.48
2022-11-10T09:27:30.106Z,8.78
2022-11-10T09:30:21.012Z,8.95
2022-11-10T09:33:13.015Z,8.82
2022-11-10T09:36:04.150Z,8.87
2022-11-10T09:38:54.941Z,8.78
2022-11-10T09:41:46.490Z,9.05
2022-11-10T09:44:46.054Z,9.09
2022-11-10T09:47:56.700Z,9.15
2022-11-10T09:50:53.842Z,9.35
2022-11-10T09:53:50.094Z,9.36
2022-11-10T09:56:41.503Z,9.47
2022-11-10T09:59:33.747Z,9.31
2022-11-10T10:02:30.551Z,9.59
2022-11-10T10:05:53.286Z,9.60
2022-11-10T10:08:59.001Z,9.76
2022-11-10T10:12:03.363Z,9.99
2022-11-10T10:15:11.313Z,10.23
2022-11-10T10:18:18.184Z,10.49
2022-11-10T10:21:40.430Z,10.63
2022-11-10T10:24:33.272Z,10.47
2022-11-10T10:27:26.571Z,10.69
2022-11-10T10:30:19.816Z,10.63
2022-11-10T10:33:16.038Z,10.54
2022-11-10T10:36:10.164Z,10.51
2022-11-10T10:39:05.238Z,10.79
2022-11-10T10:41:56.992Z,11.21
2022-11-10T10:45:12.793Z,11.46
2022-11-10T10:48:22.981Z,11.66
2022-11-10T10:51:28.555Z,11.90
2022-11-10T10:54:28.451Z,12.34
2022-11-10T10:57:22.707Z,12.57
2022-11-10T11:00:19.780Z,12.72
2022-11-10T11:03:13.950Z,13.03
2022-11-10T11:06:08.130Z,13.36
2022-11-10T11:09:05.760Z,13.48
2022-11-10T11:12:03.378Z,13.63
2022-11-10T11:15:13.574Z,14.07
2022-11-10T11:18:12.991Z,14.21
2022-11-10T11:21:07.905Z,14.41
2022-11-10T11:24:23.477Z,14.52
2022-11-10T11:27:23.672Z,14.53
2022-11-10T11:30:17.370Z,14.75
2022-11-10T11:33:28.358Z,14.86
2022-11-10T11:36:29.570Z,14.87
2022-11-10T11:39:33.367Z,15.19
2022-11-10T11:42:39.497Z,15.48
2022-11-10T11:45:41.990Z,15.83
2022-11-10T11:48:46.337Z,15.88
2022-11-10T11:51:45.058Z,16.15
2022-11-10T11:54:48.585Z,16.09
2022-11-10T11:57:53.040Z,16.03
2022-11-10T12:00:52.421Z,16.21
2022-11-10T12:03:55.283Z,16.02
2022-11-10T12:07:00.337Z,16.06
2022-11-10T12:10:00.461Z,16.21
2022-11-10T12:13:14.389Z,15.90
2022-11-10T12:16:15.274Z,15.94
2022-11-10T12:19:21.377Z,16.13
2022-11-10T12:22:25.665Z,16.26
2022-11-10T12:25:24.682Z,16.22
2022-11-10T12:28:21.615Z,16.33
2022-11-10T12:31:20.754Z,16.28
2022-11-10T12:34:19.568Z,16.36
2022-11-10T12:37:17.246Z,16.42
2022-11-10T12:40:17.130Z,16.43
2022-11-10T12:43:17.667Z,16.39
2022-11-10T12:46:12.314Z,16.05
2022-11-10T12:49:13.047Z,16.14
2022-11-10T12:52:14.106Z,16.42
2022-11-10T12:55:05.476Z,16.62
2022-11-10T12:57:56.374Z,16.60
2022-11-10T13:00:56.402Z,16.72
2022-11-10T13:03:55.837Z,16.61
2022-11-10T13:06:49.597Z,16.49
2022-11-10T13:09:43.588Z,16.44
2022-11-10T13:12:35.110Z,16.50
2022-11-10T13:15:47.633Z,16.30
2022-11-10T13:19:00.789Z,15.91
2022-11-10T13:22:10.966Z,16.04
2022-11-10T13:25:38.909Z,16.05
2022-11-10T13:28:58.366Z,15.77
2022-11-10T13:31:59.828Z,15.84
2022-11-10T13:34:52.313Z,15.80
2022-11-10T13:37:50.059Z,15.89
2022-11-10T13:40:43.199Z,15.70
2022-11-10T13:43:34.388Z,15.51
2022-11-10T13:46:34.623Z,15.47
2022-11-10T13:49:38.005Z,15.07
2022-11-10T13:52:44.318Z,15.31
2022-11-10T13:55:59.978Z,15.12
2022-11-10T13:58:50.983Z,15.30
2022-11-10T14:01:41.833Z,15.21
2022-11-10T14:04:41.910Z,15.25
2022-11-10T14:07:41.002Z,15.10
2022-11-10T14:10:39.344Z,15.11
2022-11-10T14:13:37.560Z,14.97
2022-11-10T14:16:31.349Z,15.09
2022-11-10T14:19:35.444Z,14.95
2022-11-10T14:22:30.585Z,14.61
2022-11-10T14:25:26.188Z,14.61
2022-11-10T14:28:25.213Z,14.54
2022-11-10T14:31:19.042Z,14.41
2022-11-10T14:34:14.985Z,14.36
2022-11-10T14:37:06.521Z,14.14
2022-11-10T14:40:00.768Z,14.18
2022-11-10T14:42:52.525Z,14.10
2022-11-10T14:45:50.776Z,13.98
2022-11-10T14:48:41.625Z,13.98
2022-11-10T14:51:34.534Z,13.89
2022-11-10T14:54:27.552Z,13.81
2022-11-10T14:57:19.551Z,13.71
2022-11-10T15:00:17.102Z,13.56
2022-11-10T15:03:12.377Z,13.41
2022-11-10T15:06:07.573Z,13.19
2022-11-10T15:08:59.045Z,12.97
2022-11-10T15:11:52.827Z,12.83
2022-11-10T15:14:46.487Z,12.75
2022-11-10T15:17:46.039Z,12.61
2022-11-10T15:20:39.463Z,12.51
2022-11-10T15:23:35.743Z,12.33
2022-11-10T15:26:29.170Z,12.21
2022-11-10T15:29:22.221Z,12.11
2022-11-10T15:32:16.174Z,11.85
2022-11-10T15:35:10.590Z,11.66
2022-11-10T15:38:03.627Z,11.43
2022-11-10T15:41:09.773Z,11.34
2022-11-10T15:44:18.253Z,11.11
2022-11-10T15:47:12.238Z,11.05
2022-11-10T15:50:03.373Z,10.96
2022-11-10T15:52:55.085Z,10.76
2022-11-10T15:55:46.279Z,10.59
2022-11-10T15:58:37.052Z,10.50
2022-11-10T16:01:28.226Z,10.26
2022-11-10T16:04:19.121Z,10.20
2022-11-10T16:07:10.230Z,10.14
2022-11-10T16:10:02.407Z,10.03
2022-11-10T16:12:53.434Z,9.97
2022-11-10T16:15:44.997Z,9.86
2022-11-10T16:18:38.859Z,9.69
2022-11-10T16:21:31.915Z,9.62
2022-11-10T16:24:22.828Z,9.40
2022-11-10T16:27:14.804Z,9.30
2022-11-10T16:30:12.038Z,9.27
2022-11-10T16:33:03.825Z,9.24
2022-11-10T16:35:55.309Z,9.04
2022-11-10T16:38:46.461Z,8.99
2022-11-10T16:41:37.216Z,8.92
2022-11-10T16:44:28.653Z,8.78
2022-11-10T16:47:19.459Z,8.57
2022-11-10T16:50:30.041Z,8.49
2022-11-10T16:53:23.896Z,8.49
2022-11-10T16:56:16.291Z,8.48
2022-11-10T16:59:08.741Z,8.38
2022-11-10T17:02:00.524Z,8.29
2022-11-10T17:04:51.885Z,8.13
2022-11-10T17:07:42.847Z,8.14
2022-11-10T17:10:33.802Z,8.13
2022-11-10T17:13:25.305Z,8.00
2022-11-10T17:16:24.649Z,7.95
2022-11-10T17:19:22.769Z,7.85
2022-11-10T17:22:17.778Z,7.86
2022-11-10T17:25:14.049Z,7.75
2022-11-10T17:28:04.929Z,7.67
2022-11-10T17:30:56.385Z,7.56
2022-11-10T17:33:47.362Z,7.51
2022-11-10T17:36:39.401Z,7.50
2022-11-10T17:39:30.575Z,7.41
2022-11-10T17:42:21.605Z,7.39
2022-11-10T17:45:18.967Z,7.38
2022-11-10T17:48:09.973Z,7.21
2022-11-10T17:51:01.085Z,7.19
2022-11-10T17:53:52.861Z,7.16
2022-11-10T17:56:43.702Z,7.09
2022-11-10T17:59:34.778Z,7.09
2022-11-10T18:02:25.694Z,7.07
2022-11-10T18:05:17.987Z,7.05
2022-11-10T18:08:09.575Z,7.05
2022-11-10T18:11:01.283Z,6.97
2022-11-10T18:13:51.933Z,6.92
2022-11-10T18:16:43.123Z,6.92
2022-11-10T18:19:34.068Z,6.95
2022-11-10T18:22:24.904Z,6.95
2022-11-10T18:25:15.619Z,7.02
2022-11-10T18:28:07.720Z,7.05
2022-11-10T18:30:58.466Z,7.06
2022-11-10T18:33:49.222Z,7.08
2022-11-10T18:36:40.325Z,7.12
2022-11-10T18:39:31.188Z,7.16
2022-11-10T18:42:22.474Z,7.18
2022-11-10T18:45:13.810Z,7.09
2022-11-10T18:48:05.687Z,7.11
2022-11-10T18:50:56.613Z,7.09
2022-11-10T18:53:47.618Z,7.10
2022-11-10T18:56:38.764Z,7.06
2022-11-10T18:59:29.839Z,7.11
2022-11-10T19:02:21.660Z,6.99
2022-11-10T19:05:12.384Z,6.98
2022-11-10T19:08:03.473Z,6.97
2022-11-10T19:10:54.865Z,6.94
2022-11-10T19:13:45.957Z,6.94
2022-11-10T19:16:36.634Z,6.98
2022-11-10T19:19:28.294Z,6.96
2022-11-10T19:22:19.494Z,6.91
2022-11-10T19:25:10.472Z,6.84
2022-11-10T19:28:01.505Z,6.82
2022-11-10T19:30:52.433Z,6.78
2022-11-10T19:33:44.773Z,6.78
2022-11-10T19:36:36.366Z,6.79
2022-11-10T19:39:27.482Z,6.79
2022-11-10T19:42:18.590Z,6.76
2022-11-10T19:45:09.904Z,6.68
2022-11-10T19:48:00.757Z,6.68
2022-11-10T19:50:54.674Z,6.62
2022-11-10T19:53:48.000Z,6.62
2022-11-10T19:56:38.843Z,6.57
2022-11-10T19:59:29.851Z,6.57
2022-11-10T20:02:20.785Z,6.58
2022-11-10T20:05:16.519Z,6.56
2022-11-10T20:08:10.564Z,6.55
2022-11-10T20:11:04.107Z,6.60
2022-11-10T20:13:57.153Z,6.60
2022-11-10T20:16:47.889Z,6.57
2022-11-10T20:19:41.008Z,6.51
2022-11-10T20:22:32.245Z,6.42
2022-11-10T20:25:23.254Z,6.40
2022-11-10T20:28:14.953Z,6.42
2022-11-10T20:31:08.236Z,6.42
2022-11-10T20:33:59.412Z,6.47
2022-11-10T20:36:50.554Z,6.48
2022-11-10T20:39:41.641Z,6.48
2022-11-10T20:42:32.713Z,6.48
2022-11-10T20:45:24.370Z,6.48
2022-11-10T20:48:15.000Z,6.48
2022-11-10T20:51:09.913Z,6.45
2022-11-10T20:54:01.540Z,6.35
2022-11-10T20:56:52.614Z,6.34
2022-11-10T20:59:43.653Z,6.34
2022-11-10T21:02:34.997Z,6.45
2022-11-10T21:05:25.780Z,6.40
2022-11-10T21:08:16.506Z,6.43
2022-11-10T21:11:08.613Z,6.38
2022-11-10T21:14:00.714Z,6.27
2022-11-10T21:16:51.826Z,6.04
2022-11-10T21:19:43.202Z,6.00
2022-11-10T21:22:33.917Z,5.89
2022-11-10T21:25:24.774Z,5.89
2022-11-10T21:28:15.678Z,5.82
2022-11-10T21:31:06.607Z,5.80
2022-11-10T21:33:58.078Z,5.56
2022-11-10T21:36:49.904Z,5.70
2022-11-10T21:39:41.577Z,5.72
2022-11-10T21:42:35.546Z,5.71
2022-11-10T21:45:26.624Z,5.76
2022-11-10T21:48:17.357Z,5.75
2022-11-10T21:51:10.662Z,5.75
2022-11-10T21:54:02.256Z,5.56
2022-11-10T21:56:53.233Z,5.61
2022-11-10T21:59:44.388Z,5.49
2022-11-10T22:02:35.470Z,5.37
2022-11-10T22:05:26.978Z,5.30
2022-11-10T22:08:21.751Z,5.21
2022-11-10T22:11:33.196Z,5.36
2022-11-10T22:14:42.043Z,5.41
2022-11-10T22:17:51.080Z,5.36
2022-11-10T22:20:41.803Z,5.25
2022-11-10T22:23:51.297Z,5.33
2022-11-10T22:26:42.785Z,5.62
2022-11-10T22:29:33.481Z,5.68
2022-11-10T22:32:24.426Z,5.50
2022-11-10T22:35:30.004Z,5.82
2022-11-10T22:38:20.809Z,5.83
2022-11-10T22:41:32.295Z,5.77
2022-11-10T22:44:25.207Z,6.04
2022-11-10T22:47:16.401Z,6.29
2022-11-10T22:50:07.960Z,6.51
2022-11-10T22:52:58.901Z,6.74
2022-11-10T22:55:49.890Z,6.89
2022-11-10T22:58:40.730Z,7.03
2022-11-10T23:01:32.657Z,7.04
2022-11-10T23:04:24.110Z,7.08
2022-11-10T23:07:14.860Z,7.07
2022-11-10T23:10:07.017Z,7.16
2022-11-10T23:12:57.994Z,7.25
2022-11-10T23:15:52.370Z,7.22
2022-11-10T23:18:45.423Z,7.30
2022-11-10T23:21:36.274Z,7.48
2022-11-10T23:24:27.175Z,7.56
2022-11-10T23:27:18.008Z,7.69
2022-11-10T23:30:11.174Z,7.76
2022-11-10T23:33:01.950Z,7.77
2022-11-10T23:35:53.462Z,7.62
2022-11-10T23:38:45.113Z,7.70
2022-11-10T23:41:36.296Z,7.64
2022-11-10T23:44:27.027Z,7.62
2022-11-10T23:47:18.102Z,7.65
2022-11-10T23:50:09.902Z,7.63
2022-11-10T23:53:01.527Z,7.74
2022-11-10T23:55:56.380Z,7.63
2022-11-10T23:58:47.220Z,7.35
